createdAt,value
2023-04-09T00:02:56.284Z,26.10
2023-04-09T00:08:01.590Z,28.00
2023-04-09T00:13:06.920Z,26.40
2023-04-09T00:18:12.284Z,25.20
2023-04-09T00:23:17.660Z,29.60
2023-04-09T00:28:23.052Z,27.80
2023-04-09T00:33:28.319Z,31.00
2023-04-09T00:38:33.823Z,28.80
2023-04-09T00:43:39.094Z,32.00
2023-04-09T00:48:45.043Z,30.40
2023-04-09T00:53:50.717Z,32.30
2023-04-09T00:58:58.647Z,35.40
2023-04-09T01:04:04.557Z,37.20
2023-04-09T01:09:18.035Z,36.00
2023-04-09T01:14:30.259Z,35.20
2023-04-09T01:19:48.940Z,35.90
2023-04-09T01:25:04.807Z,39.50
2023-04-09T01:30:12.600Z,39.70
2023-04-09T01:35:18.784Z,40.70
2023-04-09T01:40:24.373Z,41.80
2023-04-09T01:45:29.774Z,39.40
2023-04-09T01:50:35.643Z,35.10
2023-04-09T01:55:41.161Z,39.40
2023-04-09T02:00:48.937Z,43.10
2023-04-09T02:06:00.789Z,40.60
2023-04-09T02:11:09.494Z,43.00
2023-04-09T02:16:16.157Z,40.40
2023-04-09T02:21:21.923Z,38.30
2023-04-09T02:26:27.488Z,38.80
2023-04-09T02:31:32.833Z,38.80
2023-04-09T02:36:38.261Z,40.80
2023-04-09T02:41:44.107Z,37.80
2023-04-09T02:46:50.479Z,40.20
2023-04-09T02:51:56.010Z,45.60
2023-04-09T02:57:01.443Z,47.60
2023-04-09T03:02:06.863Z,53.70
2023-04-09T03:07:12.274Z,43.50
2023-04-09T03:12:17.703Z,39.10
2023-04-09T03:17:25.807Z,33.30
2023-04-09T03:22:35.450Z,29.10
2023-04-09T03:27:40.703Z,28.70
2023-04-09T03:32:46.100Z,28.60
2023-04-09T03:37:52.557Z,31.20
2023-04-09T03:42:57.952Z,31.80
2023-04-09T03:48:03.433Z,31.50
2023-04-09T03:53:08.887Z,30.40
2023-04-09T03:58:14.653Z,32.10
2023-04-09T04:03:20.062Z,37.80
2023-04-09T04:08:25.522Z,34.00
2023-04-09T04:13:30.940Z,32.80
2023-04-09T04:18:36.665Z,29.10
2023-04-09T04:23:42.202Z,37.50
2023-04-09T04:28:47.511Z,36.00
2023-04-09T04:33:52.867Z,32.60
2023-04-09T04:38:58.419Z,34.40
2023-04-09T04:44:03.741Z,34.80
2023-04-09T04:49:09.051Z,33.20
2023-04-09T04:54:14.349Z,35.00
2023-04-09T04:59:19.741Z,36.10
2023-04-09T05:04:25.058Z,36.10
2023-04-09T05:09:30.717Z,36.20
2023-04-09T05:14:36.331Z,40.90
2023-04-09T05:19:41.683Z,36.00
2023-04-09T05:24:47.057Z,32.70
2023-04-09T05:29:52.355Z,36.60
2023-04-09T05:34:57.749Z,37.00
2023-04-09T05:40:03.528Z,28.00
2023-04-09T05:45:10.852Z,33.60
2023-04-09T05:50:16.500Z,32.00
2023-04-09T05:55:21.868Z,29.40
2023-04-09T06:00:27.607Z,30.90
2023-04-09T06:05:33.224Z,26.40
2023-04-09T06:10:39.910Z,26.70
2023-04-09T06:15:46.359Z,33.70
2023-04-09T06:21:00.865Z,28.60
2023-04-09T06:26:06.494Z,27.90
2023-04-09T06:31:12.239Z,27.30
2023-04-09T06:36:17.773Z,30.80
2023-04-09T06:41:23.774Z,26.70
2023-04-09T06:46:29.461Z,27.90
2023-04-09T06:51:34.854Z,24.90
2023-04-09T06:56:40.342Z,27.60
2023-04-09T07:01:47.780Z,27.30
2023-04-09T07:06:54.809Z,29.60
2023-04-09T07:12:00.556Z,28.40
2023-04-09T07:17:06.054Z,30.90
2023-04-09T07:22:11.470Z,29.80
2023-04-09T07:27:16.738Z,27.80
2023-04-09T07:32:22.327Z,31.00
2023-04-09T07:37:27.815Z,31.00
2023-04-09T07:42:33.181Z,29.80
2023-04-09T07:47:38.949Z,29.30
2023-04-09T07:52:44.620Z,31.50
2023-04-09T07:57:51.753Z,32.30
2023-04-09T08:02:57.502Z,28.50
2023-04-09T08:08:03.627Z,28.60
2023-04-09T08:13:10.198Z,28.20
2023-04-09T08:18:17.321Z,28.50
2023-04-09T08:23:23.210Z,31.30
2023-04-09T08:28:28.733Z,29.40
2023-04-09T08:33:33.982Z,30.40
2023-04-09T08:38:39.631Z,29.30
2023-04-09T08:43:57.156Z,26.20
2023-04-09T09:16:35.934Z,27.70
2023-04-09T09:44:34.906Z,26.40
2023-04-09T09:49:40.326Z,26.80
2023-04-09T09:54:52.213Z,23.20
2023-04-09T10:00:01.376Z,26.30
2023-04-09T10:05:08.694Z,26.40
2023-04-09T10:10:14.088Z,25.70
2023-04-09T10:15:19.850Z,26.90
2023-04-09T10:20:29.744Z,24.80
2023-04-09T10:25:35.653Z,25.40
2023-04-09T10:30:40.925Z,23.00
2023-04-09T10:35:48.767Z,24.20
2023-04-09T10:40:54.764Z,25.20
2023-04-09T10:46:00.763Z,23.10
2023-04-09T10:51:06.613Z,24.10
2023-04-09T10:56:17.338Z,23.20
2023-04-09T11:01:24.290Z,21.90
2023-04-09T11:06:31.091Z,24.60
2023-04-09T11:11:36.981Z,23.80
2023-04-09T11:16:43.018Z,23.20
2023-04-09T11:21:49.015Z,23.90
2023-04-09T11:26:56.811Z,25.50
2023-04-09T11:32:02.669Z,24.50
2023-04-09T11:37:14.064Z,25.30
2023-04-09T11:42:19.524Z,27.50
2023-04-09T11:47:24.986Z,27.60
2023-04-09T11:52:32.549Z,24.10
2023-04-09T11:57:46.059Z,24.00
2023-04-09T12:02:58.610Z,24.20
2023-04-09T12:08:07.309Z,23.60
2023-04-09T12:13:13.646Z,24.80
2023-04-09T12:18:21.506Z,24.30
2023-04-09T12:23:26.869Z,25.00
2023-04-09T12:28:32.441Z,24.30
2023-04-09T12:33:38.967Z,21.70
2023-04-09T12:38:44.328Z,19.20
2023-04-09T12:43:49.840Z,22.40
2023-04-09T12:48:55.880Z,23.40
2023-04-09T12:54:03.989Z,23.60
2023-04-09T12:59:09.667Z,22.10
2023-04-09T13:04:15.497Z,21.50
2023-04-09T13:09:21.084Z,24.30
2023-04-09T13:14:26.593Z,25.50
2023-04-09T13:19:32.384Z,20.90
2023-04-09T13:24:38.155Z,20.30
2023-04-09T13:29:43.611Z,21.20
2023-04-09T13:34:49.371Z,16.60
2023-04-09T13:39:55.341Z,21.30
2023-04-09T13:45:00.984Z,22.90
2023-04-09T13:50:10.236Z,21.00
2023-04-09T13:55:15.765Z,18.70
2023-04-09T14:00:21.165Z,20.90
2023-04-09T14:05:26.512Z,20.70
2023-04-09T14:10:31.940Z,19.60
2023-04-09T14:15:37.488Z,21.40
2023-04-09T14:20:43.231Z,20.90
2023-04-09T14:25:48.543Z,20.10
2023-04-09T14:30:54.310Z,19.80
2023-04-09T14:35:59.755Z,21.90
2023-04-09T14:41:06.750Z,18.60
2023-04-09T14:46:12.147Z,20.90
2023-04-09T14:51:17.743Z,19.60
2023-04-09T14:56:23.250Z,19.60
2023-04-09T15:01:28.743Z,18.10
2023-04-09T15:06:34.246Z,20.60
2023-04-09T15:11:40.148Z,16.70
2023-04-09T15:16:45.463Z,18.10
2023-04-09T15:21:51.076Z,16.70
2023-04-09T15:26:56.976Z,16.00
2023-04-09T15:32:02.534Z,14.90
2023-04-09T15:37:08.003Z,14.60
2023-04-09T15:42:14.796Z,15.30
2023-04-09T15:47:20.372Z,15.80
2023-04-09T15:52:26.656Z,13.30
2023-04-09T15:57:32.311Z,14.50
2023-04-09T16:02:38.861Z,14.30
2023-04-09T16:07:44.390Z,14.30
2023-04-09T16:12:49.864Z,16.70
2023-04-09T16:17:55.364Z,15.20
2023-04-09T16:23:01.241Z,16.90
2023-04-09T16:28:06.865Z,16.50
2023-04-09T16:33:12.862Z,16.20
2023-04-09T16:38:18.225Z,16.80
2023-04-09T16:43:24.197Z,15.60
2023-04-09T16:48:29.469Z,16.20
2023-04-09T16:53:38.756Z,15.50
2023-04-09T16:58:45.936Z,17.20
2023-04-09T17:03:51.518Z,15.20
2023-04-09T17:08:57.417Z,15.60
2023-04-09T17:14:03.175Z,13.90
2023-04-09T17:19:08.916Z,20.10
2023-04-09T17:24:14.361Z,16.80
2023-04-09T17:29:19.609Z,17.40
2023-04-09T17:34:24.946Z,15.30
2023-04-09T17:39:30.378Z,15.60
2023-04-09T17:44:36.363Z,17.80
2023-04-09T17:49:41.871Z,14.50
2023-04-09T17:54:47.261Z,19.90
2023-04-09T17:59:52.834Z,15.60
2023-04-09T18:05:04.524Z,16.20
2023-04-09T18:15:16.468Z,14.20
2023-04-09T18:20:21.919Z,15.80
2023-04-09T18:25:28.665Z,15.30
2023-04-09T18:30:36.106Z,16.00
2023-04-09T18:35:41.507Z,19.20
2023-04-09T18:40:46.932Z,18.30
2023-04-09T18:45:52.544Z,21.90
2023-04-09T18:50:58.999Z,21.00
2023-04-09T18:56:04.596Z,21.30
2023-04-09T19:01:13.487Z,21.30
2023-04-09T19:06:19.892Z,21.80
2023-04-09T19:11:25.984Z,24.80
2023-04-09T19:16:31.612Z,23.10
2023-04-09T19:21:37.105Z,21.20
2023-04-09T19:26:42.393Z,22.20
2023-04-09T19:31:47.977Z,26.60
2023-04-09T19:36:53.515Z,24.20
2023-04-09T19:41:58.773Z,25.70
2023-04-09T19:47:07.102Z,29.40
2023-04-09T19:52:12.518Z,32.50
2023-04-09T19:57:17.938Z,27.60
2023-04-09T20:02:24.009Z,29.40
2023-04-09T20:07:49.957Z,30.10
2023-04-09T20:13:14.419Z,29.30
2023-04-09T20:18:40.231Z,29.40
2023-04-09T20:24:05.886Z,30.10
2023-04-09T20:29:31.654Z,29.20
2023-04-09T20:34:49.596Z,29.50
2023-04-09T20:40:08.519Z,28.30
2023-04-09T20:45:34.433Z,31.60
2023-04-09T20:51:00.236Z,36.20
2023-04-09T20:56:34.499Z,35.90
2023-04-09T21:02:00.356Z,31.40
2023-04-09T21:07:26.115Z,34.90
2023-04-09T21:12:51.841Z,34.70
2023-04-09T21:18:17.452Z,34.90
2023-04-09T21:23:43.202Z,40.00
2023-04-09T21:29:08.801Z,38.70
2023-04-09T21:34:34.576Z,40.90
2023-04-09T21:40:00.211Z,36.20
2023-04-09T21:45:19.575Z,42.30
2023-04-09T21:50:45.542Z,39.70
2023-04-09T21:56:11.265Z,40.30
2023-04-09T22:01:37.212Z,41.20
2023-04-09T22:07:05.176Z,39.10
2023-04-09T22:12:30.937Z,42.10
2023-04-09T22:17:56.735Z,41.40
2023-04-09T22:23:22.418Z,39.40
2023-04-09T22:28:48.182Z,41.10
2023-04-09T22:34:20.577Z,37.70
2023-04-09T22:39:39.709Z,38.70
2023-04-09T22:45:05.394Z,39.60
2023-04-09T22:50:31.934Z,39.40
2023-04-09T22:55:57.448Z,36.80
2023-04-09T23:01:21.825Z,40.30
2023-04-09T23:06:48.039Z,39.20
2023-04-09T23:12:13.745Z,38.00
2023-04-09T23:17:39.467Z,35.10
2023-04-09T23:23:05.556Z,33.60
2023-04-09T23:28:31.201Z,33.00
2023-04-09T23:33:56.846Z,38.00
2023-04-09T23:39:22.762Z,35.60
2023-04-09T23:44:48.415Z,35.30
2023-04-09T23:50:14.298Z,37.60
2023-04-09T23:55:39.980Z,33.50
